Aireys Inlet, Victoria

3:25 PM AEST on September 03, 2015 (GMT +1000)
IVICTORI201 | | Change Station
CLOSE
Current Station
Personal Weather Station
Location: Lorne, VICTORIA
Elevation: 36 ft
Nearby Weather Stations

Elev 36 ft 38.55 °S, 143.99 °E | Updated 44 seconds ago

Mostly Cloudy
Mostly Cloudy
54.6 °F
Feels Like 54.6 °F
N
14.0
Wind Variable Wind from SSW
Gusts 18.0 mph

Today
High -- | Low -- °F
--% Chance of Precip.
Yesterday
High -- | Low -- °F
Precip. -- in
6:43 AM 6:03 PM
Waning Gibbous, 74% visible
Pressure 30.04 in
Visibility 6.2 miles
Clouds Scattered Clouds 2600 ft
Mostly Cloudy 8900 ft
Dew Point 48 °F
Humidity 78%
Rainfall 0.00 in
Snow Depth Not available.
UV 2 out of 12
Pollen Not available.
Air Quality Not available.
Flu Activity Not available.
METAR YMAV 030500Z AUTO 19019KT 9999 // SCT026 BKN089 13/08 Q1017
Pressure 30.04 in
Visibility 6.2 miles
Clouds Scattered Clouds 2600 ft
Mostly Cloudy 8900 ft
Dew Point 48 °F
Humidity 78%
Rainfall 0.00 in
Snow Depth Not available.
UV 2 out of 12
Pollen Not available.
Air Quality Not available.
Flu Activity Not available.
METAR YMAV 030500Z AUTO 19019KT 9999 // SCT026 BKN089 13/08 Q1017

10-Day Weather Forecast

×

Almanac

Astronomy

Sep. 03, 2015 Rise Set
Actual Time
Civil Twilight
Nautical Twilight
Astronomical Twilight
Moon
Length of Visible Light
Length of Day
Tomorrow will be .
, % of the Moon is Illuminated

Today's Extremes

Country Highs Country Lows

Community

WunderPhotos

Upload Photos

1,851,914 photos uploaded!

WunderBlogs® & News

Nearby

Air Quality

  Air Quality AQ Index Pollutant
Not available.

Snow Depth

Station Depth Elevation

Earthquake Activity

City Distance Mag. Time & Date
Minimum magnitude displayed is 2.5.

Coastal Water Temperatures

Place Temperature

Stations

Nearby Weather Stations

Station Location Temp. Windchill Dew Point Humidity Wind Precip. Elev Updated Type